sensor_id;sensor_type;location;lat;lon;timestamp;pressure;altitude;pressure_sealevel;temperature;humidity
6096;BME280;25081;42.698;23.298;2023-03-03T00:00:32;95335.83;;;3.70;88.15
6096;BME280;25081;42.698;23.298;2023-03-03T00:02:42;95340.90;;;3.49;88.66
6096;BME280;25081;42.698;23.298;2023-03-03T00:04:53;95343.21;;;3.48;89.08
6096;BME280;25081;42.698;23.298;2023-03-03T00:07:03;95345.84;;;3.44;89.25
6096;BME280;25081;42.698;23.298;2023-03-03T00:09:14;95340.76;;;3.42;89.33
6096;BME280;25081;42.698;23.298;2023-03-03T00:11:24;95344.21;;;3.43;89.71
6096;BME280;25081;42.698;23.298;2023-03-03T00:13:40;95333.31;;;3.46;89.59
6096;BME280;25081;42.698;23.298;2023-03-03T00:15:48;95332.50;;;3.45;89.57
6096;BME280;25081;42.698;23.298;2023-03-03T00:17:58;95330.36;;;3.45;89.66
6096;BME280;25081;42.698;23.298;2023-03-03T00:20:28;95331.00;;;3.51;89.58
6096;BME280;25081;42.698;23.298;2023-03-03T00:22:38;95336.13;;;3.44;89.62
6096;BME280;25081;42.698;23.298;2023-03-03T00:24:49;95324.77;;;3.44;89.83
6096;BME280;25081;42.698;23.298;2023-03-03T00:27:00;95324.27;;;3.49;89.84
6096;BME280;25081;42.698;23.298;2023-03-03T00:29:28;95328.50;;;3.54;89.71
6096;BME280;25081;42.698;23.298;2023-03-03T00:31:38;95331.35;;;3.48;89.71
6096;BME280;25081;42.698;23.298;2023-03-03T00:33:49;95325.41;;;3.46;90.20
6096;BME280;25081;42.698;23.298;2023-03-03T00:36:09;95323.45;;;3.48;90.20
6096;BME280;25081;42.698;23.298;2023-03-03T00:38:18;95324.80;;;3.40;90.42
6096;BME280;25081;42.698;23.298;2023-03-03T00:40:30;95319.71;;;3.34;90.72
6096;BME280;25081;42.698;23.298;2023-03-03T00:42:40;95314.44;;;3.38;90.75
6096;BME280;25081;42.698;23.298;2023-03-03T00:44:56;95317.00;;;3.47;90.49
6096;BME280;25081;42.698;23.298;2023-03-03T00:49:42;95307.28;;;3.47;90.14
6096;BME280;25081;42.698;23.298;2023-03-03T00:51:53;95300.33;;;3.58;90.12
6096;BME280;25081;42.698;23.298;2023-03-03T00:54:04;95297.87;;;3.53;89.87
6096;BME280;25081;42.698;23.298;2023-03-03T00:56:14;95294.88;;;3.60;90.14
6096;BME280;25081;42.698;23.298;2023-03-03T00:58:25;95287.97;;;3.59;90.14
6096;BME280;25081;42.698;23.298;2023-03-03T01:00:36;95290.29;;;3.54;90.44
6096;BME280;25081;42.698;23.298;2023-03-03T01:02:46;95288.33;;;3.52;90.28
6096;BME280;25081;42.698;23.298;2023-03-03T01:04:56;95280.15;;;3.42;90.83
6096;BME280;25081;42.698;23.298;2023-03-03T01:07:07;95277.79;;;3.52;91.18
6096;BME280;25081;42.698;23.298;2023-03-03T01:09:17;95277.93;;;3.54;90.66
6096;BME280;25081;42.698;23.298;2023-03-03T01:11:28;95280.88;;;3.59;90.66
6096;BME280;25081;42.698;23.298;2023-03-03T01:13:39;95284.20;;;3.53;90.67
6096;BME280;25081;42.698;23.298;2023-03-03T01:15:49;95272.34;;;3.53;90.89
6096;BME280;25081;42.698;23.298;2023-03-03T01:18:00;95276.02;;;3.48;91.02
6096;BME280;25081;42.698;23.298;2023-03-03T01:20:12;95272.38;;;3.49;91.09
6096;BME280;25081;42.698;23.298;2023-03-03T01:22:22;95274.52;;;3.45;91.04
6096;BME280;25081;42.698;23.298;2023-03-03T01:24:33;95272.56;;;3.43;91.24
6096;BME280;25081;42.698;23.298;2023-03-03T01:26:43;95275.20;;;3.43;91.37
6096;BME280;25081;42.698;23.298;2023-03-03T01:28:53;95278.02;;;3.42;91.42
6096;BME280;25081;42.698;23.298;2023-03-03T01:31:04;95275.19;;;3.48;91.26
6096;BME280;25081;42.698;23.298;2023-03-03T01:33:14;95278.30;;;3.47;91.12
6096;BME280;25081;42.698;23.298;2023-03-03T01:35:25;95275.34;;;3.46;91.01
6096;BME280;25081;42.698;23.298;2023-03-03T01:37:35;95271.47;;;3.38;91.37
6096;BME280;25081;42.698;23.298;2023-03-03T01:39:49;95266.34;;;3.40;91.62
6096;BME280;25081;42.698;23.298;2023-03-03T01:42:00;95267.75;;;3.51;91.11
6096;BME280;25081;42.698;23.298;2023-03-03T01:44:11;95269.52;;;3.59;90.66
6096;BME280;25081;42.698;23.298;2023-03-03T01:49:17;95265.11;;;3.51;91.04
6096;BME280;25081;42.698;23.298;2023-03-03T01:51:28;95272.70;;;3.46;90.93
6096;BME280;25081;42.698;23.298;2023-03-03T01:53:40;95263.80;;;3.51;90.61
6096;BME280;25081;42.698;23.298;2023-03-03T01:55:49;95262.16;;;3.50;90.48
6096;BME280;25081;42.698;23.298;2023-03-03T01:58:01;95262.44;;;3.55;90.67
6096;BME280;25081;42.698;23.298;2023-03-03T02:00:12;95263.70;;;3.40;90.93
6096;BME280;25081;42.698;23.298;2023-03-03T02:02:22;95264.10;;;3.25;91.24
6096;BME280;25081;42.698;23.298;2023-03-03T02:04:33;95259.37;;;3.21;91.87
6096;BME280;25081;42.698;23.298;2023-03-03T02:06:46;95253.74;;;3.24;91.87
6096;BME280;25081;42.698;23.298;2023-03-03T02:08:56;95261.64;;;3.24;91.63
6096;BME280;25081;42.698;23.298;2023-03-03T02:11:06;95252.96;;;3.19;91.86
6096;BME280;25081;42.698;23.298;2023-03-03T02:13:17;95262.78;;;3.29;91.84
6096;BME280;25081;42.698;23.298;2023-03-03T02:15:28;95263.20;;;3.37;91.51
6096;BME280;25081;42.698;23.298;2023-03-03T02:17:38;95258.57;;;3.43;91.20
6096;BME280;25081;42.698;23.298;2023-03-03T02:19:51;95256.39;;;3.51;90.76
6096;BME280;25081;42.698;23.298;2023-03-03T02:22:01;95255.56;;;3.50;90.44
6096;BME280;25081;42.698;23.298;2023-03-03T02:24:13;95259.84;;;3.51;90.38
6096;BME280;25081;42.698;23.298;2023-03-03T02:26:23;95255.53;;;3.54;90.30
6096;BME280;25081;42.698;23.298;2023-03-03T02:28:34;95261.12;;;3.55;89.96
6096;BME280;25081;42.698;23.298;2023-03-03T02:30:44;95262.61;;;3.58;89.81
6096;BME280;25081;42.698;23.298;2023-03-03T02:32:54;95254.39;;;3.53;89.48
6096;BME280;25081;42.698;23.298;2023-03-03T02:35:28;95257.53;;;3.52;89.53
6096;BME280;25081;42.698;23.298;2023-03-03T02:37:37;95257.44;;;3.41;89.41
6096;BME280;25081;42.698;23.298;2023-03-03T02:39:48;95262.52;;;3.43;89.81
6096;BME280;25081;42.698;23.298;2023-03-03T02:41:59;95256.80;;;3.39;90.09
6096;BME280;25081;42.698;23.298;2023-03-03T02:44:09;95254.30;;;3.42;89.99
6096;BME280;25081;42.698;23.298;2023-03-03T02:46:20;95252.34;;;3.40;89.85
6096;BME280;25081;42.698;23.298;2023-03-03T02:48:30;95256.62;;;3.37;89.93
6096;BME280;25081;42.698;23.298;2023-03-03T02:50:40;95255.11;;;3.42;89.96
6096;BME280;25081;42.698;23.298;2023-03-03T02:52:51;95258.71;;;3.45;89.75
6096;BME280;25081;42.698;23.298;2023-03-03T02:55:01;95259.43;;;3.39;89.92
6096;BME280;25081;42.698;23.298;2023-03-03T02:57:12;95250.97;;;3.21;90.28
6096;BME280;25081;42.698;23.298;2023-03-03T02:59:23;95253.92;;;3.18;90.59
6096;BME280;25081;42.698;23.298;2023-03-03T03:01:33;95250.79;;;3.23;90.55
6096;BME280;25081;42.698;23.298;2023-03-03T03:03:44;95255.24;;;3.18;90.75
6096;BME280;25081;42.698;23.298;2023-03-03T03:05:55;95245.06;;;3.15;91.00
6096;BME280;25081;42.698;23.298;2023-03-03T03:08:05;95246.38;;;3.19;90.61
6096;BME280;25081;42.698;23.298;2023-03-03T03:10:16;95249.62;;;3.25;91.02
6096;BME280;25081;42.698;23.298;2023-03-03T03:12:27;95251.84;;;3.36;90.58
6096;BME280;25081;42.698;23.298;2023-03-03T03:14:37;95245.44;;;3.39;90.11
6096;BME280;25081;42.698;23.298;2023-03-03T03:16:48;95248.06;;;3.39;90.51
6096;BME280;25081;42.698;23.298;2023-03-03T03:18:59;95251.34;;;3.37;90.40
6096;BME280;25081;42.698;23.298;2023-03-03T03:21:10;95245.71;;;3.44;90.25
6096;BME280;25081;42.698;23.298;2023-03-03T03:23:20;95238.36;;;3.35;90.76
6096;BME280;25081;42.698;23.298;2023-03-03T03:25:31;95245.16;;;3.30;91.04
6096;BME280;25081;42.698;23.298;2023-03-03T03:27:41;95246.52;;;3.18;91.32
6096;BME280;25081;42.698;23.298;2023-03-03T03:29:52;95239.30;;;3.15;92.08
6096;BME280;25081;42.698;23.298;2023-03-03T03:32:03;95241.33;;;3.09;92.82
6096;BME280;25081;42.698;23.298;2023-03-03T03:34:13;95246.09;;;3.10;92.88
6096;BME280;25081;42.698;23.298;2023-03-03T03:36:23;95241.33;;;3.05;92.93
6096;BME280;25081;42.698;23.298;2023-03-03T03:38:34;95243.17;;;3.01;92.99
6096;BME280;25081;42.698;23.298;2023-03-03T03:40:47;95235.38;;;3.11;93.33
6096;BME280;25081;42.698;23.298;2023-03-03T03:42:57;95236.20;;;3.08;93.06
6096;BME280;25081;42.698;23.298;2023-03-03T03:45:10;95236.23;;;3.04;93.59
6096;BME280;25081;42.698;23.298;2023-03-03T03:47:21;95235.28;;;3.01;93.69
6096;BME280;25081;42.698;23.298;2023-03-03T03:49:31;95235.63;;;2.94;94.17
6096;BME280;25081;42.698;23.298;2023-03-03T03:51:42;95236.80;;;2.87;94.18
6096;BME280;25081;42.698;23.298;2023-03-03T03:53:52;95230.05;;;2.93;95.06
6096;BME280;25081;42.698;23.298;2023-03-03T03:56:03;95232.04;;;2.86;95.29
6096;BME280;25081;42.698;23.298;2023-03-03T03:58:14;95234.00;;;2.88;95.42
6096;BME280;25081;42.698;23.298;2023-03-03T04:00:24;95230.37;;;2.94;95.25
6096;BME280;25081;42.698;23.298;2023-03-03T04:02:35;95231.36;;;2.88;95.94
6096;BME280;25081;42.698;23.298;2023-03-03T04:04:45;95228.70;;;3.01;96.34
6096;BME280;25081;42.698;23.298;2023-03-03T04:06:56;95225.39;;;3.03;96.04
6096;BME280;25081;42.698;23.298;2023-03-03T04:09:06;95219.30;;;3.02;95.99
6096;BME280;25081;42.698;23.298;2023-03-03T04:11:17;95225.03;;;3.06;95.48
6096;BME280;25081;42.698;23.298;2023-03-03T04:13:27;95222.98;;;3.20;95.41
6096;BME280;25081;42.698;23.298;2023-03-03T04:15:38;95222.59;;;3.31;95.24
6096;BME280;25081;42.698;23.298;2023-03-03T04:17:48;95228.53;;;3.29;95.28
6096;BME280;25081;42.698;23.298;2023-03-03T04:19:59;95225.45;;;3.18;95.01
6096;BME280;25081;42.698;23.298;2023-03-03T04:22:10;95219.86;;;3.21;95.37
6096;BME280;25081;42.698;23.298;2023-03-03T04:24:20;95223.45;;;3.24;95.26
6096;BME280;25081;42.698;23.298;2023-03-03T04:26:31;95218.00;;;3.25;95.65
6096;BME280;25081;42.698;23.298;2023-03-03T04:28:41;95224.85;;;3.38;96.09
6096;BME280;25081;42.698;23.298;2023-03-03T04:30:52;95224.85;;;3.38;94.66
6096;BME280;25081;42.698;23.298;2023-03-03T04:33:02;95220.45;;;3.31;94.60
6096;BME280;25081;42.698;23.298;2023-03-03T04:35:13;95221.64;;;3.24;94.83
6096;BME280;25081;42.698;23.298;2023-03-03T04:37:23;95215.27;;;3.19;94.90
6096;BME280;25081;42.698;23.298;2023-03-03T04:39:34;95211.59;;;3.24;95.68
6096;BME280;25081;42.698;23.298;2023-03-03T04:41:44;95216.95;;;3.07;95.10
6096;BME280;25081;42.698;23.298;2023-03-03T04:43:55;95214.53;;;3.02;96.13
6096;BME280;25081;42.698;23.298;2023-03-03T04:46:06;95214.77;;;3.15;96.02
6096;BME280;25081;42.698;23.298;2023-03-03T04:48:16;95218.05;;;3.17;95.87
6096;BME280;25081;42.698;23.298;2023-03-03T04:50:27;95222.03;;;3.13;95.95
6096;BME280;25081;42.698;23.298;2023-03-03T04:52:38;95221.72;;;3.08;95.85
6096;BME280;25081;42.698;23.298;2023-03-03T04:54:48;95213.95;;;3.14;96.01
6096;BME280;25081;42.698;23.298;2023-03-03T04:56:59;95213.09;;;3.22;96.23
6096;BME280;25081;42.698;23.298;2023-03-03T04:59:09;95216.78;;;3.36;96.79
6096;BME280;25081;42.698;23.298;2023-03-03T05:01:20;95223.13;;;3.50;96.71
6096;BME280;25081;42.698;23.298;2023-03-03T05:03:31;95224.27;;;3.47;96.12
6096;BME280;25081;42.698;23.298;2023-03-03T05:05:41;95222.59;;;3.27;95.26
6096;BME280;25081;42.698;23.298;2023-03-03T05:07:52;95225.59;;;3.24;95.41
6096;BME280;25081;42.698;23.298;2023-03-03T05:10:03;95232.03;;;3.22;96.22
6096;BME280;25081;42.698;23.298;2023-03-03T05:12:13;95223.27;;;3.25;96.16
6096;BME280;25081;42.698;23.298;2023-03-03T05:14:24;95231.72;;;3.16;95.89
6096;BME280;25081;42.698;23.298;2023-03-03T05:16:35;95228.66;;;3.09;96.57
6096;BME280;25081;42.698;23.298;2023-03-03T05:18:45;95231.00;;;3.00;96.59
6096;BME280;25081;42.698;23.298;2023-03-03T05:20:56;95231.33;;;2.97;97.30
6096;BME280;25081;42.698;23.298;2023-03-03T05:23:06;95226.48;;;3.08;97.70
6096;BME280;25081;42.698;23.298;2023-03-03T05:25:17;95225.09;;;3.25;97.95
6096;BME280;25081;42.698;23.298;2023-03-03T05:27:28;95227.54;;;3.30;97.04
6096;BME280;25081;42.698;23.298;2023-03-03T05:29:38;95238.58;;;3.30;96.31
6096;BME280;25081;42.698;23.298;2023-03-03T05:31:49;95238.48;;;3.19;96.63
6096;BME280;25081;42.698;23.298;2023-03-03T05:33:59;95231.03;;;3.23;96.89
6096;BME280;25081;42.698;23.298;2023-03-03T05:36:10;95234.31;;;3.25;96.82
6096;BME280;25081;42.698;23.298;2023-03-03T05:38:20;95232.75;;;3.11;96.67
6096;BME280;25081;42.698;23.298;2023-03-03T05:40:31;95236.38;;;3.06;96.95
6096;BME280;25081;42.698;23.298;2023-03-03T05:42:41;95240.16;;;3.08;97.06
6096;BME280;25081;42.698;23.298;2023-03-03T05:44:52;95241.19;;;2.99;97.23
6096;BME280;25081;42.698;23.298;2023-03-03T05:47:02;95239.66;;;3.08;98.02
6096;BME280;25081;42.698;23.298;2023-03-03T05:49:13;95240.76;;;3.18;97.64
6096;BME280;25081;42.698;23.298;2023-03-03T05:51:24;95238.62;;;3.22;97.26
6096;BME280;25081;42.698;23.298;2023-03-03T05:53:34;95252.33;;;3.13;96.79
6096;BME280;25081;42.698;23.298;2023-03-03T05:55:44;95247.20;;;3.15;96.91
6096;BME280;25081;42.698;23.298;2023-03-03T05:57:55;95252.00;;;3.12;97.16
6096;BME280;25081;42.698;23.298;2023-03-03T06:00:07;95251.58;;;3.00;97.64
6096;BME280;25081;42.698;23.298;2023-03-03T06:02:18;95244.70;;;2.87;97.72
6096;BME280;25081;42.698;23.298;2023-03-03T06:04:28;95247.52;;;2.90;98.11
6096;BME280;25081;42.698;23.298;2023-03-03T06:06:39;95242.00;;;3.03;97.92
6096;BME280;25081;42.698;23.298;2023-03-03T06:08:49;95246.88;;;3.19;97.85
6096;BME280;25081;42.698;23.298;2023-03-03T06:11:00;95246.06;;;3.14;97.36
6096;BME280;25081;42.698;23.298;2023-03-03T06:13:11;95241.25;;;3.22;96.93
6096;BME280;25081;42.698;23.298;2023-03-03T06:15:22;95247.80;;;3.30;97.16
6096;BME280;25081;42.698;23.298;2023-03-03T06:17:32;95246.30;;;3.31;96.56
6096;BME280;25081;42.698;23.298;2023-03-03T06:19:42;95247.98;;;3.24;96.64
6096;BME280;25081;42.698;23.298;2023-03-03T06:21:53;95249.61;;;3.29;96.27
6096;BME280;25081;42.698;23.298;2023-03-03T06:24:04;95253.46;;;3.19;95.87
6096;BME280;25081;42.698;23.298;2023-03-03T06:26:14;95254.06;;;3.25;96.53
6096;BME280;25081;42.698;23.298;2023-03-03T06:28:25;95259.41;;;3.12;95.55
6096;BME280;25081;42.698;23.298;2023-03-03T06:30:35;95258.34;;;3.26;95.84
6096;BME280;25081;42.698;23.298;2023-03-03T06:32:48;95254.42;;;3.22;95.48
6096;BME280;25081;42.698;23.298;2023-03-03T06:34:58;95254.24;;;3.23;95.94
6096;BME280;25081;42.698;23.298;2023-03-03T06:37:08;95254.70;;;3.27;95.63
6096;BME280;25081;42.698;23.298;2023-03-03T06:39:19;95259.19;;;3.22;95.42
6096;BME280;25081;42.698;23.298;2023-03-03T06:41:29;95252.42;;;3.24;95.64
6096;BME280;25081;42.698;23.298;2023-03-03T06:43:40;95260.25;;;3.36;95.87
6096;BME280;25081;42.698;23.298;2023-03-03T06:45:50;95257.02;;;3.30;95.62
6096;BME280;25081;42.698;23.298;2023-03-03T06:48:01;95259.33;;;3.29;95.02
6096;BME280;25081;42.698;23.298;2023-03-03T06:50:12;95256.84;;;3.31;95.20
6096;BME280;25081;42.698;23.298;2023-03-03T06:52:24;95260.70;;;3.43;95.03
6096;BME280;25081;42.698;23.298;2023-03-03T06:54:33;95263.84;;;3.43;94.15
6096;BME280;25081;42.698;23.298;2023-03-03T06:56:44;95267.53;;;3.57;94.30
6096;BME280;25081;42.698;23.298;2023-03-03T06:58:55;94726.03;;;0.30;92.77
6096;BME280;25081;42.698;23.298;2023-03-03T07:01:11;95260.06;;;3.68;92.95
6096;BME280;25081;42.698;23.298;2023-03-03T07:03:20;95261.64;;;3.78;93.08
6096;BME280;25081;42.698;23.298;2023-03-03T07:05:31;95262.83;;;3.71;92.49
6096;BME280;25081;42.698;23.298;2023-03-03T07:07:43;95271.00;;;3.80;93.01
6096;BME280;25081;42.698;23.298;2023-03-03T07:09:53;95266.73;;;3.79;92.43
6096;BME280;25081;42.698;23.298;2023-03-03T07:12:09;95274.42;;;3.85;92.60
6096;BME280;25081;42.698;23.298;2023-03-03T07:14:20;95260.23;;;3.67;93.08
6096;BME280;25081;42.698;23.298;2023-03-03T07:16:33;95270.88;;;3.73;93.39
6096;BME280;25081;42.698;23.298;2023-03-03T07:18:46;95269.00;;;3.82;93.58
6096;BME280;25081;42.698;23.298;2023-03-03T07:20:56;95282.83;;;3.84;93.23
6096;BME280;25081;42.698;23.298;2023-03-03T07:23:13;95269.37;;;3.79;93.49
6096;BME280;25081;42.698;23.298;2023-03-03T07:25:27;95271.46;;;3.84;93.66
6096;BME280;25081;42.698;23.298;2023-03-03T07:27:36;95268.37;;;3.76;93.85
6096;BME280;25081;42.698;23.298;2023-03-03T07:29:47;95269.22;;;3.95;93.86
6096;BME280;25081;42.698;23.298;2023-03-03T07:31:59;95265.11;;;3.74;92.38
6096;BME280;25081;42.698;23.298;2023-03-03T07:34:18;95264.69;;;3.85;92.80
6096;BME280;25081;42.698;23.298;2023-03-03T07:36:32;95259.98;;;3.95;92.79
6096;BME280;25081;42.698;23.298;2023-03-03T07:38:41;95264.49;;;3.91;92.63
6096;BME280;25081;42.698;23.298;2023-03-03T07:40:52;95257.29;;;4.03;92.15
6096;BME280;25081;42.698;23.298;2023-03-03T07:43:11;95261.67;;;3.92;92.33
6096;BME280;25081;42.698;23.298;2023-03-03T07:45:25;95258.03;;;3.93;92.34
6096;BME280;25081;42.698;23.298;2023-03-03T07:47:36;95254.27;;;4.11;92.70
6096;BME280;25081;42.698;23.298;2023-03-03T07:49:46;95259.41;;;4.27;91.84
6096;BME280;25081;42.698;23.298;2023-03-03T07:51:57;95252.81;;;4.08;90.83
6096;BME280;25081;42.698;23.298;2023-03-03T07:54:25;95250.31;;;4.11;91.55
6096;BME280;25081;42.698;23.298;2023-03-03T07:56:34;95253.39;;;4.33;91.84
6096;BME280;25081;42.698;23.298;2023-03-03T07:58:45;95260.30;;;4.34;90.37
6096;BME280;25081;42.698;23.298;2023-03-03T08:03:48;95248.23;;;4.21;90.43
6096;BME280;25081;42.698;23.298;2023-03-03T08:05:58;95248.91;;;4.38;90.42
6096;BME280;25081;42.698;23.298;2023-03-03T08:08:18;95245.31;;;4.35;89.76
6096;BME280;25081;42.698;23.298;2023-03-03T08:10:35;95245.84;;;4.30;90.24
6096;BME280;25081;42.698;23.298;2023-03-03T08:12:45;95241.17;;;4.36;90.10
6096;BME280;25081;42.698;23.298;2023-03-03T08:14:56;95248.59;;;4.37;90.58
6096;BME280;25081;42.698;23.298;2023-03-03T08:17:13;95246.11;;;4.54;90.96
6096;BME280;25081;42.698;23.298;2023-03-03T08:19:23;95239.83;;;4.55;89.64
6096;BME280;25081;42.698;23.298;2023-03-03T08:21:34;95249.46;;;4.48;90.40
6096;BME280;25081;42.698;23.298;2023-03-03T08:23:45;95247.58;;;4.52;90.19
6096;BME280;25081;42.698;23.298;2023-03-03T08:25:55;95246.64;;;4.35;89.97
6096;BME280;25081;42.698;23.298;2023-03-03T08:28:06;95235.16;;;4.42;90.22
6096;BME280;25081;42.698;23.298;2023-03-03T08:30:17;95245.08;;;4.40;89.61
6096;BME280;25081;42.698;23.298;2023-03-03T08:32:28;95240.17;;;4.52;88.48
6096;BME280;25081;42.698;23.298;2023-03-03T08:34:38;95231.53;;;4.58;88.39
6096;BME280;25081;42.698;23.298;2023-03-03T08:36:49;95236.87;;;4.54;89.57
6096;BME280;25081;42.698;23.298;2023-03-03T08:38:59;95231.43;;;4.51;90.42
6096;BME280;25081;42.698;23.298;2023-03-03T08:41:10;95234.53;;;4.70;90.15
6096;BME280;25081;42.698;23.298;2023-03-03T08:43:20;95242.97;;;4.54;89.28
6096;BME280;25081;42.698;23.298;2023-03-03T08:45:31;95228.20;;;4.60;89.38
6096;BME280;25081;42.698;23.298;2023-03-03T08:47:42;95239.71;;;4.63;88.77
6096;BME280;25081;42.698;23.298;2023-03-03T08:49:52;95235.09;;;4.65;88.66
6096;BME280;25081;42.698;23.298;2023-03-03T08:52:03;95235.48;;;4.73;88.96
6096;BME280;25081;42.698;23.298;2023-03-03T08:54:14;95233.84;;;4.86;88.53
6096;BME280;25081;42.698;23.298;2023-03-03T08:56:25;95234.00;;;4.74;88.13
6096;BME280;25081;42.698;23.298;2023-03-03T08:58:35;95232.56;;;4.53;89.30
6096;BME280;25081;42.698;23.298;2023-03-03T09:00:46;95232.81;;;4.47;90.43
6096;BME280;25081;42.698;23.298;2023-03-03T09:02:56;95240.19;;;4.67;88.97
6096;BME280;25081;42.698;23.298;2023-03-03T09:05:09;95239.41;;;4.77;88.41
6096;BME280;25081;42.698;23.298;2023-03-03T09:07:19;95238.73;;;4.64;88.68
6096;BME280;25081;42.698;23.298;2023-03-03T09:09:30;95236.13;;;4.60;89.02
6096;BME280;25081;42.698;23.298;2023-03-03T09:11:40;95237.58;;;4.63;89.87
6096;BME280;25081;42.698;23.298;2023-03-03T09:13:51;95235.98;;;4.87;89.72
6096;BME280;25081;42.698;23.298;2023-03-03T09:16:02;95229.56;;;5.11;88.86
6096;BME280;25081;42.698;23.298;2023-03-03T09:18:15;95229.82;;;4.91;89.11
6096;BME280;25081;42.698;23.298;2023-03-03T09:20:33;95229.88;;;4.86;89.12
6096;BME280;25081;42.698;23.298;2023-03-03T09:22:43;95235.13;;;4.76;88.40
6096;BME280;25081;42.698;23.298;2023-03-03T09:24:56;95226.52;;;4.78;87.98
6096;BME280;25081;42.698;23.298;2023-03-03T09:27:11;95232.55;;;4.97;88.01
6096;BME280;25081;42.698;23.298;2023-03-03T09:29:25;95230.63;;;5.06;87.95
6096;BME280;25081;42.698;23.298;2023-03-03T09:31:37;95236.42;;;5.31;87.44
6096;BME280;25081;42.698;23.298;2023-03-03T09:33:47;95231.26;;;5.08;86.43
6096;BME280;25081;42.698;23.298;2023-03-03T09:36:10;95235.32;;;5.00;87.56
6096;BME280;25081;42.698;23.298;2023-03-03T09:38:18;95234.02;;;5.10;87.43
6096;BME280;25081;42.698;23.298;2023-03-03T09:40:41;95235.92;;;5.31;86.39
6096;BME280;25081;42.698;23.298;2023-03-03T09:42:54;95235.86;;;5.46;87.52
6096;BME280;25081;42.698;23.298;2023-03-03T09:45:41;95232.97;;;5.41;86.14
6096;BME280;25081;42.698;23.298;2023-03-03T09:50:41;95235.72;;;6.01;85.86
6096;BME280;25081;42.698;23.298;2023-03-03T09:52:53;95233.40;;;6.30;83.95
6096;BME280;25081;42.698;23.298;2023-03-03T09:55:18;95229.73;;;5.92;83.23
6096;BME280;25081;42.698;23.298;2023-03-03T09:57:34;95242.48;;;5.78;82.67
6096;BME280;25081;42.698;23.298;2023-03-03T09:59:54;95234.75;;;5.98;82.65
6096;BME280;25081;42.698;23.298;2023-03-03T10:02:20;95234.73;;;5.77;82.87
6096;BME280;25081;42.698;23.298;2023-03-03T10:04:44;95225.48;;;5.98;83.78
6096;BME280;25081;42.698;23.298;2023-03-03T10:06:58;95224.95;;;6.30;82.91
6096;BME280;25081;42.698;23.298;2023-03-03T10:11:41;95223.31;;;6.57;81.06
6096;BME280;25081;42.698;23.298;2023-03-03T10:14:16;95222.16;;;6.56;81.02
6096;BME280;25081;42.698;23.298;2023-03-03T10:16:35;95224.78;;;6.21;81.21
6096;BME280;25081;42.698;23.298;2023-03-03T10:18:46;95218.98;;;6.22;83.50
6096;BME280;25081;42.698;23.298;2023-03-03T10:21:03;95220.81;;;6.21;83.32
6096;BME280;25081;42.698;23.298;2023-03-03T10:23:17;95223.85;;;6.36;84.23
6096;BME280;25081;42.698;23.298;2023-03-03T10:25:33;95219.95;;;6.59;84.11
6096;BME280;25081;42.698;23.298;2023-03-03T10:30:18;95214.30;;;6.69;83.39
6096;BME280;25081;42.698;23.298;2023-03-03T10:32:42;95209.16;;;6.78;83.22
6096;BME280;25081;42.698;23.298;2023-03-03T10:35:12;95201.22;;;6.85;82.32
6096;BME280;25081;42.698;23.298;2023-03-03T10:37:21;95202.66;;;7.05;82.47
6096;BME280;25081;42.698;23.298;2023-03-03T10:39:42;95198.19;;;7.12;80.95
6096;BME280;25081;42.698;23.298;2023-03-03T10:41:57;95196.98;;;7.14;80.74
6096;BME280;25081;42.698;23.298;2023-03-03T10:44:25;95201.34;;;7.11;80.91
6096;BME280;25081;42.698;23.298;2023-03-03T10:46:41;95199.81;;;7.06;81.02
6096;BME280;25081;42.698;23.298;2023-03-03T10:49:07;95200.38;;;6.95;81.68
6096;BME280;25081;42.698;23.298;2023-03-03T10:51:23;95200.75;;;6.92;82.57
6096;BME280;25081;42.698;23.298;2023-03-03T10:53:33;95198.45;;;6.58;81.50
6096;BME280;25081;42.698;23.298;2023-03-03T10:55:47;95196.98;;;6.56;82.75
6096;BME280;25081;42.698;23.298;2023-03-03T11:00:33;95189.28;;;6.78;82.33
6096;BME280;25081;42.698;23.298;2023-03-03T11:02:47;95188.47;;;6.78;82.61
6096;BME280;25081;42.698;23.298;2023-03-03T11:05:18;95187.30;;;6.94;82.06
6096;BME280;25081;42.698;23.298;2023-03-03T11:07:30;95181.45;;;6.81;81.29
6096;BME280;25081;42.698;23.298;2023-03-03T11:09:45;95181.95;;;6.80;82.26
6096;BME280;25081;42.698;23.298;2023-03-03T11:11:56;95180.36;;;6.86;81.74
6096;BME280;25081;42.698;23.298;2023-03-03T11:14:06;95177.63;;;6.73;81.09
6096;BME280;25081;42.698;23.298;2023-03-03T11:19:15;95181.22;;;7.00;81.90
6096;BME280;25081;42.698;23.298;2023-03-03T11:21:25;95173.50;;;7.05;80.30
6096;BME280;25081;42.698;23.298;2023-03-03T11:23:54;95164.91;;;6.96;80.19
6096;BME280;25081;42.698;23.298;2023-03-03T11:26:08;95165.66;;;7.14;81.71
6096;BME280;25081;42.698;23.298;2023-03-03T11:28:30;95157.61;;;7.11;81.20
6096;BME280;25081;42.698;23.298;2023-03-03T11:30:54;95164.67;;;7.15;80.45
6096;BME280;25081;42.698;23.298;2023-03-03T11:33:05;95163.11;;;7.10;80.98
6096;BME280;25081;42.698;23.298;2023-03-03T11:35:22;95159.41;;;7.04;80.74
6096;BME280;25081;42.698;23.298;2023-03-03T11:37:36;95166.20;;;6.89;79.96
6096;BME280;25081;42.698;23.298;2023-03-03T11:39:46;95161.03;;;6.99;81.32
6096;BME280;25081;42.698;23.298;2023-03-03T11:42:00;95162.16;;;7.00;81.69
6096;BME280;25081;42.698;23.298;2023-03-03T11:44:16;95159.67;;;6.85;82.23
6096;BME280;25081;42.698;23.298;2023-03-03T11:46:26;95159.19;;;6.75;83.39
6096;BME280;25081;42.698;23.298;2023-03-03T11:48:38;95155.73;;;6.75;82.94
6096;BME280;25081;42.698;23.298;2023-03-03T11:50:52;95156.53;;;6.69;83.26
6096;BME280;25081;42.698;23.298;2023-03-03T11:53:05;95150.36;;;6.79;83.98
6096;BME280;25081;42.698;23.298;2023-03-03T11:55:14;95151.79;;;6.81;83.46
6096;BME280;25081;42.698;23.298;2023-03-03T11:57:26;95152.03;;;6.93;83.15
6096;BME280;25081;42.698;23.298;2023-03-03T12:02:28;95141.19;;;7.12;84.35
6096;BME280;25081;42.698;23.298;2023-03-03T12:04:39;95145.47;;;7.13;83.62
6096;BME280;25081;42.698;23.298;2023-03-03T12:06:57;95143.89;;;7.25;82.53
6096;BME280;25081;42.698;23.298;2023-03-03T12:09:21;95150.11;;;7.28;81.87
6096;BME280;25081;42.698;23.298;2023-03-03T12:11:33;95151.05;;;7.38;81.96
6096;BME280;25081;42.698;23.298;2023-03-03T12:13:53;95152.23;;;7.22;81.78